createdAt,value
2018-06-30T00:01:14.385Z,101158.05
2018-06-30T00:03:48.189Z,101159.70
2018-06-30T00:06:16.514Z,101159.19
2018-06-30T00:08:44.849Z,101161.25
2018-06-30T00:11:13.890Z,101160.33
2018-06-30T00:13:44.620Z,101167.98
2018-06-30T00:16:13.853Z,101166.91
2018-06-30T00:18:43.568Z,101172.30
2018-06-30T00:21:13.997Z,101176.48
2018-06-30T00:23:42.658Z,101172.48
2018-06-30T00:26:11.073Z,101172.55
2018-06-30T00:28:40.120Z,101179.86
2018-06-30T00:31:08.464Z,101184.66
2018-06-30T00:33:37.381Z,101182.97
2018-06-30T00:36:05.789Z,101179.39
2018-06-30T00:38:34.118Z,101180.61
2018-06-30T00:41:02.443Z,101179.49
2018-06-30T00:43:30.765Z,101185.16
2018-06-30T00:45:59.105Z,101188.88
2018-06-30T00:48:27.460Z,101187.19
2018-06-30T00:50:55.778Z,101185.69
2018-06-30T00:53:25.101Z,101188.32
2018-06-30T00:55:53.470Z,101198.12
2018-06-30T00:58:21.809Z,101195.98
2018-06-30T01:00:50.184Z,101199.69
2018-06-30T01:03:18.500Z,101196.94
2018-06-30T01:05:46.822Z,101203.29
2018-06-30T01:08:15.145Z,101207.22
2018-06-30T01:10:44.841Z,101202.56
2018-06-30T01:13:14.609Z,101203.97
2018-06-30T01:15:44.191Z,101208.27
2018-06-30T01:18:13.621Z,101215.80
2018-06-30T01:20:44.094Z,101219.27
2018-06-30T01:23:14.726Z,101216.39
2018-06-30T01:25:44.189Z,101214.56
2018-06-30T01:28:14.265Z,101214.33
2018-06-30T01:30:44.117Z,101221.85
2018-06-30T01:33:14.501Z,101218.61
2018-06-30T01:35:43.875Z,101218.39
2018-06-30T01:38:14.080Z,101220.52
2018-06-30T01:40:44.261Z,101231.84
2018-06-30T01:43:14.943Z,101230.16
2018-06-30T01:45:44.209Z,101231.82
2018-06-30T01:48:14.698Z,101236.50
2018-06-30T01:50:44.029Z,101239.29
2018-06-30T01:53:14.045Z,101243.36
2018-06-30T01:55:44.014Z,101247.30
2018-06-30T01:58:13.601Z,101241.70
2018-06-30T02:00:43.435Z,101248.73
2018-06-30T02:03:11.777Z,101248.17
2018-06-30T02:05:41.235Z,101244.80
2018-06-30T02:08:11.098Z,101249.16
2018-06-30T02:10:39.915Z,101250.43
2018-06-30T02:13:08.235Z,101251.03
2018-06-30T02:15:36.601Z,101251.81
2018-06-30T02:18:04.925Z,101264.36
2018-06-30T02:20:33.296Z,101260.41
2018-06-30T02:23:01.613Z,101261.17
2018-06-30T02:25:29.994Z,101264.85
2018-06-30T02:27:58.308Z,101261.16
2018-06-30T02:30:26.617Z,101258.70
2018-06-30T02:32:54.981Z,101256.17
2018-06-30T02:35:23.330Z,101262.14
2018-06-30T02:37:51.667Z,101264.27
2018-06-30T02:40:20.049Z,101267.00
2018-06-30T02:42:48.387Z,101269.70
2018-06-30T02:45:16.706Z,101274.50
2018-06-30T02:47:45.026Z,101273.50
2018-06-30T02:50:14.341Z,101270.69
2018-06-30T02:52:42.737Z,101275.52
2018-06-30T02:55:13.265Z,101274.62
2018-06-30T02:57:43.187Z,101285.48
2018-06-30T03:00:12.870Z,101294.55
2018-06-30T03:02:43.013Z,101284.00
2018-06-30T03:05:13.179Z,101293.76
2018-06-30T03:07:42.217Z,101296.58
2018-06-30T03:10:11.137Z,101296.73
2018-06-30T03:12:40.148Z,101302.59
2018-06-30T03:15:08.521Z,101300.84
2018-06-30T03:17:36.850Z,101306.80
2018-06-30T03:20:05.464Z,101310.27
2018-06-30T03:22:33.793Z,101317.23
2018-06-30T03:25:02.209Z,101318.08
2018-06-30T03:27:30.574Z,101317.66
2018-06-30T03:29:58.901Z,101315.52
2018-06-30T03:32:27.221Z,101318.41
2018-06-30T03:34:55.602Z,101325.75
2018-06-30T03:37:23.923Z,101328.95
2018-06-30T03:39:52.241Z,101320.32
2018-06-30T03:42:20.570Z,101323.56
2018-06-30T03:44:48.906Z,101330.30
2018-06-30T03:47:17.362Z,101329.57
2018-06-30T03:49:45.689Z,101331.30
2018-06-30T03:52:15.354Z,101330.30
2018-06-30T03:54:44.895Z,101327.09
2018-06-30T03:57:14.569Z,101338.80
2018-06-30T03:59:43.967Z,101341.45
2018-06-30T04:02:13.272Z,101343.91
2018-06-30T04:04:44.146Z,101340.95
2018-06-30T04:07:13.619Z,101344.55
2018-06-30T04:09:42.646Z,101343.81
2018-06-30T04:12:13.053Z,101344.38
2018-06-30T04:14:43.177Z,101343.67
2018-06-30T04:17:13.146Z,101348.83
2018-06-30T04:19:43.306Z,101352.06
2018-06-30T04:22:14.131Z,101358.68
2018-06-30T04:24:43.273Z,101349.79
2018-06-30T04:27:12.609Z,101357.33
2018-06-30T04:29:41.613Z,101362.05
2018-06-30T04:32:10.602Z,101360.88
2018-06-30T04:34:38.987Z,101369.25
2018-06-30T04:37:07.365Z,101362.71
2018-06-30T04:39:35.686Z,101371.90
2018-06-30T04:42:04.034Z,101367.75
2018-06-30T04:44:32.354Z,101372.48
2018-06-30T04:47:00.711Z,101372.09
2018-06-30T04:49:29.029Z,101371.30
2018-06-30T04:51:57.354Z,101369.95
2018-06-30T04:54:25.750Z,101366.28
2018-06-30T04:56:54.069Z,101379.23
2018-06-30T04:59:22.443Z,101371.39
2018-06-30T05:01:50.809Z,101374.02
2018-06-30T05:04:19.605Z,101374.00
2018-06-30T05:06:47.923Z,101371.34
2018-06-30T05:09:16.317Z,101372.96
2018-06-30T05:11:44.698Z,101378.06
2018-06-30T05:14:13.830Z,101375.97
2018-06-30T05:16:43.598Z,101384.69
2018-06-30T05:19:12.973Z,101384.12
2018-06-30T05:21:43.057Z,101382.34
2018-06-30T05:24:13.367Z,101390.24
2018-06-30T05:26:42.694Z,101393.81
2018-06-30T05:29:13.261Z,101390.86
2018-06-30T05:31:43.681Z,101391.95
2018-06-30T05:34:13.692Z,101393.25
2018-06-30T05:36:43.873Z,101394.71
2018-06-30T05:39:16.601Z,101387.41
2018-06-30T05:41:45.440Z,101380.80
2018-06-30T05:44:15.172Z,101391.70
2018-06-30T05:46:44.734Z,101385.70
2018-06-30T05:49:14.025Z,101395.36
2018-06-30T05:51:44.286Z,101399.69
2018-06-30T05:54:14.351Z,101398.61
2018-06-30T05:56:44.425Z,101405.53
2018-06-30T05:59:14.068Z,101398.53
2018-06-30T06:01:42.905Z,101394.05
2018-06-30T06:04:11.280Z,101401.72
2018-06-30T06:06:39.723Z,101396.88
2018-06-30T06:09:09.409Z,101396.39
2018-06-30T06:11:37.803Z,101389.27
2018-06-30T06:14:06.294Z,101401.22
2018-06-30T06:16:34.638Z,101397.37
2018-06-30T06:19:03.175Z,101400.38
2018-06-30T06:21:31.577Z,101399.66
2018-06-30T06:23:59.997Z,101400.70
2018-06-30T06:26:28.348Z,101402.41
2018-06-30T06:28:56.675Z,101401.17
2018-06-30T06:31:25.277Z,101397.27
2018-06-30T06:33:53.629Z,101392.82
2018-06-30T06:36:22.346Z,101395.83
2018-06-30T06:39:06.645Z,101401.44
2018-06-30T06:41:35.311Z,101395.25
2018-06-30T06:44:04.636Z,101393.48
2018-06-30T06:46:32.986Z,101396.48
2018-06-30T06:49:01.316Z,101399.82
2018-06-30T06:51:29.663Z,101395.91
2018-06-30T06:53:57.986Z,101394.39
2018-06-30T06:56:26.334Z,101398.87
2018-06-30T06:58:54.685Z,101401.09
2018-06-30T07:01:23.055Z,101399.57
2018-06-30T07:03:51.382Z,101405.98
2018-06-30T07:06:19.725Z,101405.57
2018-06-30T07:08:48.054Z,101399.32
2018-06-30T07:11:16.377Z,101393.95
2018-06-30T07:13:44.750Z,101394.94
2018-06-30T07:16:14.229Z,101395.41
2018-06-30T07:18:43.206Z,101408.08
2018-06-30T07:21:13.230Z,101409.77
2018-06-30T07:23:43.307Z,101409.26
2018-06-30T07:26:13.359Z,101409.47
2018-06-30T07:28:42.842Z,101419.39
2018-06-30T07:31:12.639Z,101412.80
2018-06-30T07:33:43.287Z,101403.75
2018-06-30T07:36:14.045Z,101403.33
2018-06-30T07:38:44.056Z,101397.19
2018-06-30T07:41:12.909Z,101412.26
2018-06-30T07:43:43.821Z,101411.62
2018-06-30T07:46:12.809Z,101407.39
2018-06-30T07:48:43.109Z,101416.87
2018-06-30T07:51:13.319Z,101407.45
2018-06-30T07:53:43.406Z,101404.72
2018-06-30T07:56:12.902Z,101412.41
2018-06-30T07:58:43.525Z,101409.70
2018-06-30T08:01:13.893Z,101411.45
2018-06-30T08:03:44.366Z,101407.88
2018-06-30T08:06:15.026Z,101402.64
2018-06-30T08:08:44.266Z,101407.96
2018-06-30T08:11:12.657Z,101409.60
2018-06-30T08:13:42.034Z,101401.00
2018-06-30T08:16:10.440Z,101408.57
2018-06-30T08:18:38.765Z,101406.50
2018-06-30T08:21:07.130Z,101401.72
2018-06-30T08:23:35.514Z,101400.94
2018-06-30T08:26:03.957Z,101411.03
2018-06-30T08:28:32.293Z,101408.05
2018-06-30T08:31:00.689Z,101404.05
2018-06-30T08:33:29.046Z,101405.78
2018-06-30T08:35:57.525Z,101404.06
2018-06-30T08:38:26.040Z,101402.69
2018-06-30T08:40:54.554Z,101403.23
2018-06-30T08:43:22.883Z,101405.68
2018-06-30T08:45:51.209Z,101412.94
2018-06-30T08:48:19.542Z,101403.68
2018-06-30T08:50:47.865Z,101403.60
2018-06-30T08:53:17.085Z,101399.73
2018-06-30T08:55:45.507Z,101391.16
2018-06-30T08:58:14.261Z,101407.94
2018-06-30T09:00:44.264Z,101402.23
2018-06-30T09:03:14.477Z,101407.19
2018-06-30T09:05:44.006Z,101404.41
2018-06-30T09:08:13.905Z,101399.70
2018-06-30T09:10:44.336Z,101403.12
2018-06-30T09:13:12.749Z,101404.34
2018-06-30T09:15:42.101Z,101398.13
2018-06-30T09:18:10.455Z,101404.47
2018-06-30T09:20:38.778Z,101402.20
2018-06-30T09:23:07.282Z,101402.36
2018-06-30T09:25:36.645Z,101396.48
2018-06-30T09:28:05.097Z,101406.52
2018-06-30T09:30:33.425Z,101396.34
2018-06-30T09:33:01.774Z,101400.13
2018-06-30T09:35:30.103Z,101400.34
2018-06-30T09:37:58.615Z,101404.03
2018-06-30T09:40:26.918Z,101397.84
2018-06-30T09:42:55.288Z,101406.44
2018-06-30T09:45:23.647Z,101402.03
2018-06-30T09:47:51.973Z,101397.88
2018-06-30T09:50:20.317Z,101399.47
2018-06-30T09:52:49.663Z,101395.51
2018-06-30T09:55:17.989Z,101388.02
2018-06-30T09:57:46.350Z,101392.72
2018-06-30T10:00:21.193Z,101387.05
2018-06-30T10:02:55.840Z,101390.55
2018-06-30T10:05:25.725Z,101401.39
2018-06-30T10:07:55.325Z,101395.58
2018-06-30T10:10:25.274Z,101401.50
2018-06-30T10:12:55.249Z,101394.53
2018-06-30T10:15:25.136Z,101388.87
2018-06-30T10:17:55.745Z,101390.15
2018-06-30T10:20:31.706Z,101387.73
2018-06-30T10:23:06.489Z,101375.86
2018-06-30T10:25:40.124Z,101383.84
2018-06-30T10:28:14.072Z,101371.93
2018-06-30T10:30:44.232Z,101378.04
2018-06-30T10:33:14.790Z,101378.64
2018-06-30T10:35:43.785Z,101371.89
2018-06-30T10:38:13.306Z,101373.88
2018-06-30T10:40:43.381Z,101376.40
2018-06-30T10:43:13.333Z,101378.16
2018-06-30T10:45:43.290Z,101368.23
2018-06-30T10:48:13.349Z,101363.11
2018-06-30T10:50:42.896Z,101361.74
2018-06-30T10:53:12.625Z,101356.20
2018-06-30T10:55:42.410Z,101357.28
2018-06-30T10:58:12.841Z,101361.84
2018-06-30T11:00:43.626Z,101366.70
2018-06-30T11:03:13.629Z,101371.70
2018-06-30T11:05:43.726Z,101364.92
2018-06-30T11:08:13.314Z,101364.89
2018-06-30T11:10:43.395Z,101358.72
2018-06-30T11:13:12.801Z,101356.56
2018-06-30T11:15:42.546Z,101351.86
2018-06-30T11:18:12.116Z,101353.52
2018-06-30T11:20:40.517Z,101349.56
2018-06-30T11:23:08.866Z,101363.24
2018-06-30T11:25:37.189Z,101354.48
2018-06-30T11:28:05.643Z,101361.25
2018-06-30T11:30:33.957Z,101357.59
2018-06-30T11:33:02.273Z,101367.92
2018-06-30T11:35:30.597Z,101351.22
2018-06-30T11:37:58.922Z,101359.52
2018-06-30T11:40:27.290Z,101345.23
2018-06-30T11:42:56.629Z,101358.28
2018-06-30T11:45:24.972Z,101354.25
2018-06-30T11:47:53.294Z,101348.22
2018-06-30T11:50:21.659Z,101344.83
2018-06-30T11:52:49.985Z,101337.25
2018-06-30T11:55:18.310Z,101344.19
2018-06-30T11:57:46.662Z,101331.91
2018-06-30T12:00:14.981Z,101341.64
2018-06-30T12:02:44.405Z,101344.88
2018-06-30T12:05:12.765Z,101337.50
2018-06-30T12:07:42.213Z,101319.47
2018-06-30T12:10:12.516Z,101325.02
2018-06-30T12:12:42.208Z,101328.96
2018-06-30T12:15:13.011Z,101328.67
2018-06-30T12:17:43.534Z,101327.20
2018-06-30T12:20:13.186Z,101320.05
2018-06-30T12:22:42.518Z,101322.69
2018-06-30T12:25:11.590Z,101327.08
2018-06-30T12:27:40.068Z,101326.62
2018-06-30T12:30:08.734Z,101330.89
2018-06-30T12:32:37.054Z,101337.63
2018-06-30T12:35:05.421Z,101329.56
2018-06-30T12:37:33.738Z,101326.52
2018-06-30T12:40:02.065Z,101323.41
2018-06-30T12:42:30.378Z,101325.19
2018-06-30T12:44:58.737Z,101329.20
2018-06-30T12:47:27.060Z,101329.45
2018-06-30T12:49:55.445Z,101324.11
2018-06-30T12:52:23.776Z,101325.44
2018-06-30T12:54:52.128Z,101316.50
2018-06-30T12:57:20.465Z,101318.72
2018-06-30T12:59:48.781Z,101319.02
2018-06-30T13:02:17.111Z,101315.70
2018-06-30T13:04:45.438Z,101325.80
2018-06-30T13:07:14.334Z,101321.09
2018-06-30T13:09:44.358Z,101317.17
2018-06-30T13:12:14.249Z,101319.40
2018-06-30T13:14:44.472Z,101311.50
2018-06-30T13:17:12.866Z,101317.03
2018-06-30T13:19:41.666Z,101316.09
2018-06-30T13:22:10.162Z,101315.40
2018-06-30T13:24:38.870Z,101310.77
2018-06-30T13:27:07.197Z,101305.53
2018-06-30T13:29:35.567Z,101306.02
2018-06-30T13:32:03.929Z,101309.39
2018-06-30T13:34:32.297Z,101307.42
2018-06-30T13:37:00.650Z,101309.02
2018-06-30T13:39:28.977Z,101309.23
2018-06-30T13:41:57.303Z,101297.72
2018-06-30T13:44:25.642Z,101301.59
2018-06-30T13:46:53.986Z,101302.45
2018-06-30T13:49:22.316Z,101292.55
2018-06-30T13:51:50.650Z,101296.20
2018-06-30T13:54:19.026Z,101293.63
2018-06-30T13:56:47.359Z,101290.66
2018-06-30T13:59:15.689Z,101291.36
2018-06-30T14:01:44.949Z,101295.60
2018-06-30T14:04:15.063Z,101292.98
2018-06-30T14:06:43.979Z,101295.34
2018-06-30T14:09:15.341Z,101291.12
2018-06-30T14:11:44.781Z,101287.45
2018-06-30T14:14:14.471Z,101293.35
2018-06-30T14:16:45.294Z,101292.86
2018-06-30T14:19:14.629Z,101293.21
2018-06-30T14:21:45.119Z,101292.52
2018-06-30T14:24:14.094Z,101293.34
2018-06-30T14:26:44.356Z,101287.23
2018-06-30T14:29:15.033Z,101290.03
2018-06-30T14:31:44.502Z,101286.77
2018-06-30T14:34:13.926Z,101288.19
2018-06-30T14:36:43.643Z,101289.19
2018-06-30T14:39:13.473Z,101282.25
2018-06-30T14:41:43.715Z,101279.19
2018-06-30T14:44:14.213Z,101279.50
2018-06-30T14:46:44.001Z,101279.69
2018-06-30T14:49:13.673Z,101284.09
2018-06-30T14:51:44.154Z,101270.52
2018-06-30T14:54:14.867Z,101277.76
2018-06-30T14:56:44.487Z,101271.67
2018-06-30T14:59:13.903Z,101282.84
2018-06-30T15:01:43.686Z,101282.59
2018-06-30T15:04:14.281Z,101280.98
2018-06-30T15:06:44.534Z,101283.85
2018-06-30T15:09:14.337Z,101277.05
2018-06-30T15:11:45.642Z,101276.11
2018-06-30T15:14:15.548Z,101274.47
2018-06-30T15:16:45.605Z,101274.47
2018-06-30T15:19:15.375Z,101278.16
2018-06-30T15:21:44.799Z,101275.94
2018-06-30T15:24:14.293Z,101270.44
2018-06-30T15:26:44.718Z,101264.53
2018-06-30T15:29:15.334Z,101258.66
2018-06-30T15:31:44.806Z,101254.96
2018-06-30T15:34:14.538Z,101263.27
2018-06-30T15:36:43.874Z,101258.58
2018-06-30T15:39:13.907Z,101258.60
2018-06-30T15:41:43.473Z,101262.62
2018-06-30T15:44:12.892Z,101260.09
2018-06-30T15:46:41.696Z,101263.23
2018-06-30T15:49:10.088Z,101268.32
2018-06-30T15:51:38.446Z,101265.13
2018-06-30T15:54:06.822Z,101267.48
2018-06-30T15:56:36.113Z,101261.01
2018-06-30T15:59:04.616Z,101259.27
2018-06-30T16:01:33.038Z,101252.27
2018-06-30T16:04:01.421Z,101241.84
2018-06-30T16:06:30.856Z,101244.34
2018-06-30T16:08:59.197Z,101242.95
2018-06-30T16:11:27.569Z,101249.02
2018-06-30T16:13:55.902Z,101247.75
2018-06-30T16:16:24.263Z,101248.43
2018-06-30T16:18:52.651Z,101245.32
2018-06-30T16:21:20.981Z,101252.46
2018-06-30T16:23:49.361Z,101241.30
2018-06-30T16:26:17.781Z,101246.27
2018-06-30T16:28:46.158Z,101242.89
2018-06-30T16:31:16.007Z,101250.32
2018-06-30T16:33:44.831Z,101257.42
2018-06-30T16:36:14.846Z,101254.73
2018-06-30T16:38:44.776Z,101247.88
2018-06-30T16:41:14.819Z,101251.39
2018-06-30T16:43:44.989Z,101250.58
2018-06-30T16:46:14.341Z,101257.44
2018-06-30T16:48:44.566Z,101253.76
2018-06-30T16:51:14.049Z,101247.41
2018-06-30T16:53:44.093Z,101255.87
2018-06-30T16:56:13.993Z,101241.16
2018-06-30T16:58:43.272Z,101236.56
2018-06-30T17:01:12.694Z,101245.08
2018-06-30T17:03:41.611Z,101243.39
2018-06-30T17:06:10.656Z,101245.29
2018-06-30T17:08:38.990Z,101248.85
2018-06-30T17:11:07.404Z,101250.13
2018-06-30T17:13:35.764Z,101254.10
2018-06-30T17:16:04.270Z,101258.10
2018-06-30T17:18:32.685Z,101252.03
2018-06-30T17:21:01.011Z,101253.08
2018-06-30T17:23:29.393Z,101255.42
2018-06-30T17:25:57.776Z,101254.06
2018-06-30T17:28:26.089Z,101256.02
2018-06-30T17:30:54.437Z,101257.78
2018-06-30T17:33:22.757Z,101263.09
2018-06-30T17:35:51.350Z,101262.11
2018-06-30T17:38:19.733Z,101251.96
2018-06-30T17:40:48.085Z,101264.91
2018-06-30T17:43:16.422Z,101261.83
2018-06-30T17:45:44.757Z,101264.27
2018-06-30T17:48:14.633Z,101267.53
2018-06-30T17:50:44.217Z,101271.51
2018-06-30T17:53:14.289Z,101275.48
2018-06-30T17:55:44.009Z,101275.98
2018-06-30T17:58:14.046Z,101271.49
2018-06-30T18:00:44.002Z,101279.57
2018-06-30T18:03:13.950Z,101272.45
2018-06-30T18:05:43.290Z,101284.70
2018-06-30T18:08:13.125Z,101281.69
2018-06-30T18:10:43.081Z,101284.63
2018-06-30T18:13:13.071Z,101282.91
2018-06-30T18:15:44.141Z,101287.15
2018-06-30T18:18:14.021Z,101284.83
2018-06-30T18:20:43.365Z,101287.20
2018-06-30T18:23:11.749Z,101289.27
2018-06-30T18:25:40.776Z,101291.28
2018-06-30T18:28:09.113Z,101291.98
2018-06-30T18:30:37.493Z,101293.57
2018-06-30T18:33:05.837Z,101291.98
2018-06-30T18:35:34.399Z,101298.16
2018-06-30T18:38:02.780Z,101302.09
2018-06-30T18:40:31.131Z,101296.44
2018-06-30T18:42:59.883Z,101299.86
2018-06-30T18:45:28.217Z,101298.78
2018-06-30T18:47:56.553Z,101300.54
2018-06-30T18:50:24.881Z,101299.98
2018-06-30T18:52:53.265Z,101304.91
2018-06-30T18:55:21.627Z,101307.03
2018-06-30T18:57:49.984Z,101316.86
2018-06-30T19:00:18.451Z,101317.39
2018-06-30T19:02:46.821Z,101316.70
2018-06-30T19:05:15.153Z,101319.73
2018-06-30T19:07:44.080Z,101324.70
2018-06-30T19:10:13.301Z,101324.41
2018-06-30T19:12:42.689Z,101326.11
2018-06-30T19:15:11.746Z,101330.10
2018-06-30T19:17:42.925Z,101330.10
2018-06-30T19:20:13.316Z,101328.19
2018-06-30T19:22:42.803Z,101330.35
2018-06-30T19:25:11.713Z,101330.83
2018-06-30T19:27:40.227Z,101331.27
2018-06-30T19:30:08.598Z,101336.26
2018-06-30T19:32:36.946Z,101335.22
2018-06-30T19:35:05.327Z,101336.30
2018-06-30T19:37:34.725Z,101336.00
2018-06-30T19:40:03.140Z,101341.39
2018-06-30T19:42:31.591Z,101343.91
2018-06-30T19:44:59.931Z,101347.52
2018-06-30T19:47:28.530Z,101347.09
2018-06-30T19:49:56.986Z,101352.55
2018-06-30T19:52:25.322Z,101356.55
2018-06-30T19:54:53.779Z,101357.18
2018-06-30T19:57:22.213Z,101359.34
2018-06-30T19:59:50.548Z,101359.20
2018-06-30T20:02:18.898Z,101370.14
2018-06-30T20:04:47.251Z,101364.67
2018-06-30T20:07:15.783Z,101366.47
2018-06-30T20:09:45.226Z,101365.09
2018-06-30T20:12:14.597Z,101362.90
2018-06-30T20:14:44.342Z,101368.95
2018-06-30T20:17:14.482Z,101370.57
2018-06-30T20:19:45.265Z,101362.26
2018-06-30T20:22:14.904Z,101368.40
2018-06-30T20:24:44.709Z,101364.23
2018-06-30T20:27:14.748Z,101372.65
2018-06-30T20:29:44.590Z,101366.83
2018-06-30T20:32:14.490Z,101375.38
2018-06-30T20:34:44.713Z,101373.29
2018-06-30T20:37:14.373Z,101383.65
2018-06-30T20:39:45.196Z,101371.36
2018-06-30T20:42:14.672Z,101375.29
2018-06-30T20:44:44.719Z,101373.98
2018-06-30T20:47:14.069Z,101370.84
2018-06-30T20:49:45.053Z,101374.89
2018-06-30T20:52:15.074Z,101376.22
2018-06-30T20:54:44.722Z,101377.62
2018-06-30T20:57:13.889Z,101387.83
2018-06-30T20:59:44.983Z,101390.23
2018-06-30T21:02:15.469Z,101385.06
2018-06-30T21:04:44.975Z,101391.58
2018-06-30T21:07:14.349Z,101395.31
2018-06-30T21:09:45.345Z,101391.47
2018-06-30T21:12:15.213Z,101388.38
2018-06-30T21:14:44.389Z,101390.50
2018-06-30T21:17:14.641Z,101393.63
2018-06-30T21:19:44.597Z,101399.25
2018-06-30T21:22:14.083Z,101405.11
2018-06-30T21:24:43.533Z,101407.25
2018-06-30T21:27:13.075Z,101403.08
2018-06-30T21:29:43.288Z,101410.71
2018-06-30T21:32:12.690Z,101406.53
2018-06-30T21:34:43.625Z,101413.56
2018-06-30T21:37:12.754Z,101410.67
2018-06-30T21:39:41.708Z,101410.52
2018-06-30T21:42:10.037Z,101418.06
2018-06-30T21:44:39.355Z,101415.88
2018-06-30T21:47:07.993Z,101421.09
2018-06-30T21:49:36.356Z,101419.75
2018-06-30T21:52:04.734Z,101413.52
2018-06-30T21:54:33.062Z,101419.53
2018-06-30T21:57:01.449Z,101412.11
2018-06-30T21:59:29.845Z,101416.31
2018-06-30T22:01:58.180Z,101419.49
2018-06-30T22:04:26.510Z,101420.30
2018-06-30T22:06:54.962Z,101422.12
2018-06-30T22:09:24.145Z,101425.73
2018-06-30T22:11:52.560Z,101423.44
2018-06-30T22:14:20.943Z,101427.11
2018-06-30T22:16:49.282Z,101423.69
2018-06-30T22:19:17.608Z,101423.30
2018-06-30T22:21:45.984Z,101415.64
2018-06-30T22:24:15.069Z,101429.58
2018-06-30T22:26:44.514Z,101426.57
2018-06-30T22:29:14.307Z,101426.02
2018-06-30T22:31:43.712Z,101428.35
2018-06-30T22:34:12.757Z,101424.79
2018-06-30T22:36:42.281Z,101428.48
2018-06-30T22:39:12.781Z,101440.84
2018-06-30T22:41:42.457Z,101435.30
2018-06-30T22:44:11.693Z,101427.30
2018-06-30T22:46:40.026Z,101430.35
2018-06-30T22:49:08.357Z,101432.97
2018-06-30T22:51:36.808Z,101439.33
2018-06-30T22:54:05.141Z,101435.54
2018-06-30T22:56:33.499Z,101438.91
2018-06-30T22:59:01.841Z,101442.44
2018-06-30T23:01:30.206Z,101437.19
2018-06-30T23:03:58.533Z,101438.33
2018-06-30T23:06:26.907Z,101448.02
2018-06-30T23:08:55.228Z,101449.14
2018-06-30T23:11:24.404Z,101448.02
2018-06-30T23:13:53.037Z,101456.55
2018-06-30T23:16:27.897Z,101455.98
2018-06-30T23:18:56.219Z,101456.77
2018-06-30T23:21:24.588Z,101453.34
2018-06-30T23:23:52.925Z,101460.56
2018-06-30T23:26:21.287Z,101456.56
2018-06-30T23:28:49.653Z,101459.57
2018-06-30T23:31:17.973Z,101461.80
2018-06-30T23:33:46.350Z,101458.82
2018-06-30T23:36:15.909Z,101458.59
2018-06-30T23:38:45.566Z,101455.93
2018-06-30T23:41:14.670Z,101458.84
2018-06-30T23:43:44.569Z,101457.61
2018-06-30T23:46:14.436Z,101456.31
2018-06-30T23:48:44.193Z,101462.39
2018-06-30T23:51:14.651Z,101456.34
2018-06-30T23:53:44.354Z,101463.50
2018-06-30T23:56:14.710Z,101464.06
2018-06-30T23:58:44.185Z,101466.27
